createdAt,value
2022-08-25T00:01:23.435Z,99.90
2022-08-25T00:03:54.272Z,99.90
2022-08-25T00:06:21.540Z,99.90
2022-08-25T00:08:49.213Z,99.90
2022-08-25T00:11:19.129Z,99.90
2022-08-25T00:13:50.687Z,99.90
2022-08-25T00:16:19.602Z,99.90
2022-08-25T00:18:50.449Z,99.90
2022-08-25T00:21:17.733Z,99.90
2022-08-25T00:23:45.266Z,99.90
2022-08-25T00:26:13.438Z,99.90
2022-08-25T00:28:40.496Z,99.90
2022-08-25T00:31:11.118Z,99.90
2022-08-25T00:33:38.069Z,99.90
2022-08-25T00:36:04.795Z,99.90
2022-08-25T00:38:31.793Z,99.90
2022-08-25T00:41:07.536Z,99.90
2022-08-25T00:43:44.834Z,99.90
2022-08-25T00:46:18.525Z,99.90
2022-08-25T00:48:48.130Z,99.90
2022-08-25T00:51:30.430Z,99.90
2022-08-25T00:53:58.214Z,99.90
2022-08-25T00:56:27.192Z,99.90
2022-08-25T00:58:54.125Z,99.90
2022-08-25T01:01:20.846Z,99.90
2022-08-25T01:03:47.744Z,99.90
2022-08-25T01:06:14.876Z,99.90
2022-08-25T01:08:42.134Z,99.90
2022-08-25T01:11:11.127Z,99.90
2022-08-25T01:13:45.175Z,99.90
2022-08-25T01:16:13.782Z,99.90
2022-08-25T01:19:00.506Z,99.90
2022-08-25T01:21:29.930Z,99.90
2022-08-25T01:23:59.527Z,99.90
2022-08-25T01:26:31.049Z,99.90
2022-08-25T01:29:18.422Z,99.90
2022-08-25T01:31:45.295Z,99.90
2022-08-25T01:34:15.558Z,99.90
2022-08-25T01:36:44.574Z,99.90
2022-08-25T01:39:13.282Z,99.90
2022-08-25T01:41:48.779Z,99.90
2022-08-25T01:44:19.171Z,99.90
2022-08-25T01:46:45.969Z,99.90
2022-08-25T01:49:12.673Z,99.90
2022-08-25T01:51:51.212Z,99.90
2022-08-25T01:54:18.024Z,99.90
2022-08-25T01:56:44.782Z,99.90
2022-08-25T01:59:14.453Z,99.90
2022-08-25T02:01:48.576Z,99.90
2022-08-25T02:04:15.538Z,99.90
2022-08-25T02:06:42.913Z,99.90
2022-08-25T02:09:15.393Z,99.90
2022-08-25T02:11:44.687Z,99.90
2022-08-25T02:14:15.478Z,99.90
2022-08-25T02:16:47.678Z,99.90
2022-08-25T02:19:15.469Z,99.90
2022-08-25T02:21:42.350Z,99.90
2022-08-25T02:24:10.119Z,99.90
2022-08-25T02:26:36.875Z,99.90
2022-08-25T02:29:03.779Z,99.90
2022-08-25T02:31:30.629Z,99.90
2022-08-25T02:33:57.581Z,99.90
2022-08-25T02:36:24.750Z,99.90
2022-08-25T02:38:51.543Z,99.90
2022-08-25T02:41:20.160Z,99.90
2022-08-25T02:43:48.548Z,99.90
2022-08-25T02:46:17.255Z,99.90
2022-08-25T02:48:44.521Z,99.90
2022-08-25T02:51:12.265Z,99.90
2022-08-25T02:53:40.647Z,99.90
2022-08-25T02:56:10.108Z,99.90
2022-08-25T02:58:38.141Z,99.90
2022-08-25T03:01:06.723Z,99.90
2022-08-25T03:03:38.833Z,99.90
2022-08-25T03:06:10.202Z,99.90
2022-08-25T03:08:37.776Z,99.90
2022-08-25T03:11:05.452Z,99.90
2022-08-25T03:13:32.437Z,99.90
2022-08-25T03:16:00.342Z,99.90
2022-08-25T03:18:27.771Z,99.90
2022-08-25T03:20:55.087Z,99.90
2022-08-25T03:23:21.835Z,99.90
2022-08-25T03:26:11.881Z,99.90
2022-08-25T03:28:38.855Z,99.90
2022-08-25T03:31:06.218Z,99.90
2022-08-25T03:33:33.175Z,99.90
2022-08-25T03:36:00.002Z,99.90
2022-08-25T03:38:27.438Z,99.90
2022-08-25T03:40:54.652Z,99.90
2022-08-25T03:43:21.699Z,99.90
2022-08-25T03:45:48.828Z,99.90
2022-08-25T03:48:16.748Z,99.90
2022-08-25T03:50:50.650Z,99.90
2022-08-25T03:53:19.816Z,99.90
2022-08-25T03:55:47.082Z,99.90
2022-08-25T03:58:14.077Z,99.90
2022-08-25T04:00:40.903Z,99.90
2022-08-25T04:03:07.921Z,99.90
2022-08-25T04:05:35.265Z,99.90
2022-08-25T04:08:02.291Z,99.90
2022-08-25T04:10:31.486Z,99.90
2022-08-25T04:12:58.279Z,99.90
2022-08-25T04:15:28.610Z,99.90
2022-08-25T04:17:58.925Z,99.90
2022-08-25T04:20:26.435Z,99.90
2022-08-25T04:22:53.412Z,99.90
2022-08-25T04:25:20.399Z,99.90
2022-08-25T04:27:47.211Z,99.90
2022-08-25T04:30:14.595Z,99.90
2022-08-25T04:32:41.448Z,99.90
2022-08-25T04:35:08.670Z,99.90
2022-08-25T04:37:35.412Z,99.90
2022-08-25T04:40:03.038Z,99.90
2022-08-25T04:42:29.768Z,99.90
2022-08-25T04:44:56.515Z,99.90
2022-08-25T04:47:23.229Z,99.90
2022-08-25T04:49:50.063Z,99.90
2022-08-25T04:52:16.897Z,99.90
2022-08-25T04:54:44.102Z,99.90
2022-08-25T04:57:11.346Z,99.90
2022-08-25T04:59:38.251Z,99.90
2022-08-25T05:02:06.721Z,99.90
2022-08-25T05:04:36.001Z,99.90
2022-08-25T05:07:03.723Z,99.90
2022-08-25T05:09:32.037Z,99.90
2022-08-25T05:12:04.251Z,99.90
2022-08-25T05:14:32.522Z,99.90
2022-08-25T05:16:59.757Z,99.90
2022-08-25T05:19:27.563Z,99.90
2022-08-25T05:21:54.824Z,99.90
2022-08-25T05:24:25.638Z,99.90
2022-08-25T05:26:52.528Z,99.90
2022-08-25T05:29:19.557Z,99.90
2022-08-25T05:31:50.411Z,99.90
2022-08-25T05:34:18.843Z,99.90
2022-08-25T05:36:45.887Z,99.90
2022-08-25T05:39:12.939Z,99.90
2022-08-25T05:41:40.256Z,99.90
2022-08-25T05:44:07.602Z,99.90
2022-08-25T05:46:34.393Z,99.90
2022-08-25T05:49:01.891Z,99.90
2022-08-25T05:51:28.902Z,99.90
2022-08-25T05:53:55.862Z,99.90
2022-08-25T05:56:22.880Z,99.90
2022-08-25T05:58:50.302Z,99.90
2022-08-25T06:01:46.834Z,99.90
2022-08-25T06:04:17.984Z,99.90
2022-08-25T06:06:44.861Z,99.90
2022-08-25T06:09:11.598Z,99.90
2022-08-25T06:11:40.168Z,99.90
2022-08-25T06:14:08.723Z,99.90
2022-08-25T06:16:35.699Z,99.90
2022-08-25T06:19:02.739Z,99.90
2022-08-25T06:21:29.668Z,99.90
2022-08-25T06:23:58.993Z,99.90
2022-08-25T06:26:26.213Z,99.90
2022-08-25T06:28:53.490Z,99.90
2022-08-25T06:31:22.274Z,99.90
2022-08-25T06:33:49.960Z,99.90
2022-08-25T06:36:17.428Z,99.90
2022-08-25T06:38:44.207Z,99.90
2022-08-25T06:41:10.877Z,99.90
2022-08-25T06:43:44.978Z,99.90
2022-08-25T06:46:18.022Z,99.90
2022-08-25T06:48:45.018Z,99.90
2022-08-25T06:51:14.392Z,99.90
2022-08-25T06:53:42.764Z,99.90
2022-08-25T06:56:10.137Z,99.90
2022-08-25T06:58:37.591Z,99.90
2022-08-25T07:01:22.152Z,99.90
2022-08-25T07:03:50.410Z,99.90
2022-08-25T07:06:19.783Z,99.90
2022-08-25T07:08:48.090Z,99.90
2022-08-25T07:11:17.550Z,99.90
2022-08-25T07:13:45.684Z,99.90
2022-08-25T07:16:15.350Z,99.90
2022-08-25T07:18:42.450Z,99.90
2022-08-25T07:21:12.724Z,99.90
2022-08-25T07:23:40.989Z,99.90
2022-08-25T07:26:35.980Z,99.90
2022-08-25T07:29:01.952Z,99.90
2022-08-25T07:31:30.213Z,99.90
2022-08-25T07:34:16.338Z,99.90
2022-08-25T07:36:44.436Z,99.90
2022-08-25T07:39:11.744Z,99.90
2022-08-25T07:41:41.462Z,99.90
2022-08-25T07:44:10.034Z,99.90
2022-08-25T07:46:37.530Z,99.90
2022-08-25T07:49:09.231Z,99.90
2022-08-25T07:52:05.548Z,99.90
2022-08-25T07:54:35.422Z,99.90
2022-08-25T07:57:06.926Z,99.90
2022-08-25T07:59:39.543Z,99.90
2022-08-25T08:02:18.819Z,99.90
2022-08-25T08:04:50.775Z,99.90
2022-08-25T08:07:20.821Z,99.90
2022-08-25T08:09:56.149Z,99.90
2022-08-25T08:12:34.024Z,99.90
2022-08-25T08:15:01.828Z,99.90
2022-08-25T08:17:29.056Z,95.90
2022-08-25T08:19:55.884Z,94.20
2022-08-25T08:22:23.276Z,91.50
2022-08-25T08:24:56.058Z,90.90
2022-08-25T08:27:24.584Z,91.00
2022-08-25T08:29:52.342Z,90.00
2022-08-25T08:32:20.260Z,84.70
2022-08-25T08:34:52.568Z,83.30
2022-08-25T08:37:21.265Z,78.20
2022-08-25T08:39:51.309Z,78.40
2022-08-25T08:42:36.817Z,76.40
2022-08-25T08:45:04.287Z,75.00
2022-08-25T08:47:47.627Z,73.40
2022-08-25T08:50:33.772Z,72.70
2022-08-25T08:53:08.174Z,70.00
2022-08-25T08:55:52.905Z,72.10
2022-08-25T08:58:39.235Z,74.10
2022-08-25T09:01:12.403Z,74.70
2022-08-25T09:03:55.042Z,74.60
2022-08-25T09:06:28.481Z,73.60
2022-08-25T09:08:58.940Z,71.70
2022-08-25T09:11:44.083Z,71.40
2022-08-25T09:14:30.672Z,72.40
2022-08-25T09:17:05.985Z,73.60
2022-08-25T09:20:02.825Z,73.20
2022-08-25T09:22:42.893Z,72.20
2022-08-25T09:25:52.502Z,74.20
2022-08-25T09:28:45.862Z,73.20
2022-08-25T09:31:38.695Z,75.10
2022-08-25T09:34:11.840Z,77.00
2022-08-25T09:36:39.679Z,78.80
2022-08-25T09:39:07.889Z,79.60
2022-08-25T09:41:47.932Z,80.10
2022-08-25T09:44:33.385Z,77.90
2022-08-25T09:47:18.848Z,74.40
2022-08-25T09:49:51.510Z,70.40
2022-08-25T09:52:23.887Z,75.20
2022-08-25T09:54:54.723Z,78.30
2022-08-25T09:57:36.810Z,75.90
2022-08-25T10:00:28.980Z,77.10
2022-08-25T10:03:15.757Z,75.80
2022-08-25T10:06:13.356Z,73.30
2022-08-25T10:08:40.637Z,77.20
2022-08-25T10:11:13.232Z,73.50
2022-08-25T10:13:51.477Z,72.60
2022-08-25T10:16:30.852Z,71.80
2022-08-25T10:19:12.321Z,70.40
2022-08-25T10:21:42.916Z,67.50
2022-08-25T10:24:12.498Z,59.50
2022-08-25T10:26:57.196Z,58.10
2022-08-25T10:29:34.740Z,61.50
2022-08-25T10:32:12.135Z,62.80
2022-08-25T10:34:51.303Z,65.70
2022-08-25T10:37:26.586Z,68.80
2022-08-25T10:40:18.018Z,63.00
2022-08-25T10:43:12.758Z,60.50
2022-08-25T10:45:49.498Z,60.80
2022-08-25T10:48:36.354Z,64.70
2022-08-25T10:51:08.845Z,57.90
2022-08-25T10:54:05.994Z,55.80
2022-08-25T10:56:43.286Z,54.90
2022-08-25T10:59:32.960Z,55.40
2022-08-25T11:02:23.121Z,61.70
2022-08-25T11:04:52.981Z,60.20
2022-08-25T11:07:35.876Z,61.50
2022-08-25T11:10:09.773Z,60.30
2022-08-25T11:12:44.430Z,61.80
2022-08-25T11:15:21.417Z,60.50
2022-08-25T11:18:15.013Z,61.10
2022-08-25T11:20:48.434Z,60.50
2022-08-25T11:23:58.294Z,62.60
2022-08-25T11:26:36.867Z,64.60
2022-08-25T11:29:18.279Z,60.30
2022-08-25T11:31:52.978Z,59.50
2022-08-25T11:34:22.296Z,60.00
2022-08-25T11:37:07.759Z,60.00
2022-08-25T11:40:15.246Z,59.90
2022-08-25T11:43:00.493Z,57.90
2022-08-25T11:45:37.367Z,59.20
2022-08-25T11:48:37.176Z,59.30
2022-08-25T11:51:30.837Z,57.90
2022-08-25T11:54:28.516Z,55.80
2022-08-25T11:57:01.307Z,55.40
2022-08-25T12:00:04.631Z,54.50
2022-08-25T12:02:48.631Z,55.30
2022-08-25T12:05:22.170Z,51.50
2022-08-25T12:08:18.871Z,54.10
2022-08-25T12:11:11.882Z,50.50
2022-08-25T12:14:16.098Z,50.80
2022-08-25T12:17:00.566Z,50.50
2022-08-25T12:19:36.475Z,50.70
2022-08-25T12:22:04.872Z,53.40
2022-08-25T12:24:48.066Z,52.20
2022-08-25T12:27:59.585Z,54.10
2022-08-25T12:30:32.534Z,52.20
2022-08-25T12:33:39.586Z,50.70
2022-08-25T12:36:11.317Z,52.60
2022-08-25T12:38:52.124Z,51.20
2022-08-25T12:41:31.070Z,52.00
2022-08-25T12:44:39.628Z,52.90
2022-08-25T12:47:24.373Z,53.00
2022-08-25T12:49:51.410Z,52.20
2022-08-25T12:52:26.088Z,52.70
2022-08-25T12:54:59.517Z,52.00
2022-08-25T12:57:46.452Z,53.20
2022-08-25T13:00:20.325Z,51.40
2022-08-25T13:02:56.450Z,50.10
2022-08-25T13:05:40.634Z,51.30
2022-08-25T13:08:27.049Z,53.20
2022-08-25T13:11:21.984Z,52.20
2022-08-25T13:14:05.097Z,53.90
2022-08-25T13:16:33.902Z,52.20
2022-08-25T13:19:06.722Z,52.50
2022-08-25T13:21:37.222Z,52.50
2022-08-25T13:24:12.452Z,49.80
2022-08-25T13:26:48.139Z,50.80
2022-08-25T13:29:20.872Z,49.90
2022-08-25T13:32:14.801Z,50.30
2022-08-25T13:34:43.258Z,46.90
2022-08-25T13:37:29.693Z,47.40
2022-08-25T13:40:07.787Z,48.70
2022-08-25T13:42:43.722Z,49.40
2022-08-25T13:45:18.142Z,51.70
2022-08-25T13:47:46.690Z,50.40
2022-08-25T13:50:22.656Z,49.40
2022-08-25T13:53:14.101Z,47.70
2022-08-25T13:55:54.925Z,46.60
2022-08-25T13:58:44.687Z,48.10
2022-08-25T14:01:46.189Z,46.70
2022-08-25T14:04:39.763Z,49.00
2022-08-25T14:07:21.021Z,47.10
2022-08-25T14:10:00.251Z,50.60
2022-08-25T14:12:35.611Z,51.10
2022-08-25T14:15:12.068Z,52.90
2022-08-25T14:17:41.016Z,53.00
2022-08-25T14:20:17.283Z,51.30
2022-08-25T14:22:44.381Z,54.40
2022-08-25T14:25:11.411Z,54.10
2022-08-25T14:28:03.579Z,54.20
2022-08-25T14:30:33.660Z,55.00
2022-08-25T14:33:02.406Z,54.80
2022-08-25T14:35:29.723Z,55.80
2022-08-25T14:37:58.865Z,55.10
2022-08-25T14:40:27.353Z,56.00
2022-08-25T14:42:56.932Z,55.60
2022-08-25T14:45:24.316Z,56.50
2022-08-25T14:47:51.671Z,57.00
2022-08-25T14:50:20.865Z,57.20
2022-08-25T14:52:51.940Z,57.10
2022-08-25T14:55:31.242Z,57.60
2022-08-25T14:57:59.789Z,57.20
2022-08-25T15:00:27.385Z,57.70
2022-08-25T15:02:57.279Z,58.20
2022-08-25T15:05:28.265Z,57.90
2022-08-25T15:08:14.268Z,58.50
2022-08-25T15:10:43.361Z,58.70
2022-08-25T15:13:10.899Z,57.30
2022-08-25T15:15:52.794Z,58.20
2022-08-25T15:18:21.870Z,59.00
2022-08-25T15:20:50.112Z,58.40
2022-08-25T15:23:18.585Z,58.10
2022-08-25T15:25:47.546Z,59.10
2022-08-25T15:28:17.147Z,58.40
2022-08-25T15:30:45.844Z,58.40
2022-08-25T15:33:16.017Z,58.80
2022-08-25T15:35:43.444Z,58.90
2022-08-25T15:38:12.385Z,58.90
2022-08-25T15:40:39.942Z,60.30
2022-08-25T15:43:07.515Z,60.00
2022-08-25T15:45:36.405Z,60.30
2022-08-25T15:48:06.759Z,61.20
2022-08-25T15:50:36.356Z,61.00
2022-08-25T15:53:03.463Z,61.20
2022-08-25T15:55:30.593Z,61.20
2022-08-25T15:58:00.889Z,61.20
2022-08-25T16:00:27.906Z,61.30
2022-08-25T16:02:58.749Z,60.30
2022-08-25T16:05:26.246Z,61.50
2022-08-25T16:07:54.102Z,61.30
2022-08-25T16:10:21.209Z,62.20
2022-08-25T16:12:48.988Z,62.90
2022-08-25T16:15:16.030Z,64.20
2022-08-25T16:17:45.920Z,65.50
2022-08-25T16:20:17.138Z,67.40
2022-08-25T16:22:45.298Z,69.20
2022-08-25T16:25:12.346Z,71.60
2022-08-25T16:27:39.283Z,76.10
2022-08-25T16:30:14.923Z,80.10
2022-08-25T16:32:44.444Z,85.00
2022-08-25T16:35:11.515Z,90.70
2022-08-25T16:37:38.289Z,94.90
2022-08-25T16:40:08.711Z,95.60
2022-08-25T16:42:35.591Z,97.20
2022-08-25T16:45:02.519Z,98.90
2022-08-25T16:47:37.024Z,99.90
2022-08-25T16:50:08.821Z,99.90
2022-08-25T16:52:56.310Z,99.90
2022-08-25T16:55:26.171Z,99.90
2022-08-25T16:57:54.126Z,99.90
2022-08-25T17:00:24.752Z,99.90
2022-08-25T17:02:58.288Z,99.90
2022-08-25T17:05:29.314Z,99.90
2022-08-25T17:08:17.462Z,99.90
2022-08-25T17:10:44.654Z,99.90
2022-08-25T17:13:12.808Z,99.90
2022-08-25T17:15:46.864Z,99.90
2022-08-25T17:18:13.845Z,99.90
2022-08-25T17:20:43.235Z,99.90
2022-08-25T17:23:12.291Z,99.90
2022-08-25T17:25:43.015Z,99.90
2022-08-25T17:28:12.278Z,99.90
2022-08-25T17:30:40.651Z,99.90
2022-08-25T17:33:07.394Z,99.90
2022-08-25T17:35:42.334Z,99.90
2022-08-25T17:38:10.041Z,99.90
2022-08-25T17:40:37.493Z,99.90
2022-08-25T17:43:05.843Z,99.90
2022-08-25T17:45:36.141Z,99.90
2022-08-25T17:48:03.575Z,99.90
2022-08-25T17:50:31.469Z,99.90
2022-08-25T17:52:58.258Z,99.90
2022-08-25T17:55:25.161Z,99.90
2022-08-25T17:57:52.293Z,99.90
2022-08-25T18:00:21.425Z,99.90
2022-08-25T18:02:49.159Z,99.90
2022-08-25T18:05:16.748Z,99.90
2022-08-25T18:07:44.064Z,99.90
2022-08-25T18:10:11.815Z,99.90
2022-08-25T18:12:39.208Z,99.90
2022-08-25T18:15:06.938Z,99.90
2022-08-25T18:17:35.791Z,99.90
2022-08-25T18:20:06.292Z,99.90
2022-08-25T18:22:33.200Z,99.90
2022-08-25T18:25:00.879Z,99.90
2022-08-25T18:27:30.074Z,99.90
2022-08-25T18:29:57.369Z,99.90
2022-08-25T18:32:26.007Z,99.90
2022-08-25T18:34:53.453Z,99.90
2022-08-25T18:37:39.165Z,99.90
2022-08-25T18:40:25.270Z,99.90
2022-08-25T18:42:59.531Z,99.90
2022-08-25T18:45:31.254Z,99.90
2022-08-25T18:47:59.678Z,99.90
2022-08-25T18:50:32.683Z,99.90
2022-08-25T18:53:00.309Z,99.90
2022-08-25T18:55:27.566Z,99.90
2022-08-25T18:57:55.534Z,99.90
2022-08-25T19:00:25.144Z,99.90
2022-08-25T19:02:54.972Z,99.90
2022-08-25T19:05:32.651Z,99.90
2022-08-25T19:08:06.607Z,99.90
2022-08-25T19:10:35.851Z,99.90
2022-08-25T19:13:08.273Z,99.90
2022-08-25T19:15:35.748Z,99.90
2022-08-25T19:18:04.236Z,99.90
2022-08-25T19:20:34.342Z,99.90
2022-08-25T19:23:01.992Z,99.90
2022-08-25T19:25:32.967Z,99.90
2022-08-25T19:28:00.642Z,99.90
2022-08-25T19:30:30.273Z,99.90
2022-08-25T19:32:57.871Z,99.90
2022-08-25T19:35:44.030Z,99.90
2022-08-25T19:38:34.054Z,99.90
2022-08-25T19:41:02.525Z,99.90
2022-08-25T19:43:35.956Z,99.90
2022-08-25T19:46:02.785Z,99.90
2022-08-25T19:48:29.632Z,99.90
2022-08-25T19:50:56.582Z,99.90
2022-08-25T19:53:23.546Z,99.90
2022-08-25T19:55:50.389Z,99.90
2022-08-25T19:58:17.867Z,99.90
2022-08-25T20:00:47.147Z,99.90
2022-08-25T20:03:17.324Z,99.90
2022-08-25T20:05:44.111Z,99.90
2022-08-25T20:08:10.946Z,99.90
2022-08-25T20:10:41.964Z,99.90
2022-08-25T20:13:09.106Z,99.90
2022-08-25T20:15:38.944Z,99.90
2022-08-25T20:18:06.835Z,99.90
2022-08-25T20:20:34.715Z,99.90
2022-08-25T20:23:21.680Z,99.90
2022-08-25T20:25:50.226Z,99.90
2022-08-25T20:28:19.024Z,99.90
2022-08-25T20:30:46.531Z,99.90
2022-08-25T20:33:13.435Z,99.90
2022-08-25T20:35:48.338Z,99.90
2022-08-25T20:38:15.068Z,99.90
2022-08-25T20:40:42.077Z,99.90
2022-08-25T20:43:10.577Z,99.90
2022-08-25T20:45:39.616Z,99.90
2022-08-25T20:48:07.034Z,99.90
2022-08-25T20:50:34.495Z,99.90
2022-08-25T20:53:01.428Z,99.90
2022-08-25T20:55:28.829Z,99.90
2022-08-25T20:57:55.617Z,99.90
2022-08-25T21:00:23.579Z,99.90
2022-08-25T21:02:52.160Z,99.90
2022-08-25T21:05:19.566Z,99.90
2022-08-25T21:07:46.302Z,99.90
2022-08-25T21:10:15.877Z,99.90
2022-08-25T21:12:43.159Z,99.90
2022-08-25T21:15:11.459Z,99.90
2022-08-25T21:17:38.863Z,99.90
2022-08-25T21:20:08.067Z,99.90
2022-08-25T21:22:36.112Z,99.90
2022-08-25T21:25:05.410Z,99.90
2022-08-25T21:27:33.752Z,99.90
2022-08-25T21:30:00.580Z,99.90
2022-08-25T21:32:27.285Z,99.90
2022-08-25T21:34:55.530Z,99.90
2022-08-25T21:37:24.084Z,99.90
2022-08-25T21:39:51.499Z,99.90
2022-08-25T21:42:20.216Z,99.90
2022-08-25T21:44:46.936Z,99.90
2022-08-25T21:47:13.717Z,99.90
2022-08-25T21:49:41.352Z,99.90
2022-08-25T21:52:08.187Z,99.90
2022-08-25T21:54:34.979Z,99.90
2022-08-25T21:57:04.212Z,99.90
2022-08-25T21:59:37.594Z,99.90
2022-08-25T22:02:08.790Z,99.90
2022-08-25T22:04:38.336Z,99.90
2022-08-25T22:07:06.997Z,99.90
2022-08-25T22:09:33.910Z,99.90
2022-08-25T22:12:00.715Z,99.90
2022-08-25T22:14:27.756Z,99.90
2022-08-25T22:16:55.395Z,99.90
2022-08-25T22:19:22.974Z,99.90
2022-08-25T22:21:50.919Z,99.90
2022-08-25T22:24:18.605Z,99.90
2022-08-25T22:26:48.458Z,99.90
2022-08-25T22:29:24.764Z,99.90
2022-08-25T22:31:58.584Z,99.90
2022-08-25T22:34:32.119Z,99.90
2022-08-25T22:37:03.634Z,99.90
2022-08-25T22:39:31.328Z,99.90
2022-08-25T22:41:59.742Z,99.90
2022-08-25T22:44:26.795Z,99.90
2022-08-25T22:46:53.612Z,99.90
2022-08-25T22:49:21.038Z,99.90
2022-08-25T22:51:47.837Z,99.90
2022-08-25T22:54:15.963Z,99.90
2022-08-25T22:56:43.607Z,99.90
2022-08-25T22:59:13.011Z,99.90
2022-08-25T23:01:40.900Z,99.90
2022-08-25T23:04:07.754Z,99.90
2022-08-25T23:06:34.881Z,99.90
2022-08-25T23:09:04.393Z,99.90
2022-08-25T23:11:31.397Z,99.90
2022-08-25T23:14:05.336Z,99.90
2022-08-25T23:16:32.999Z,99.90
2022-08-25T23:19:00.684Z,99.90
2022-08-25T23:21:46.875Z,99.90
2022-08-25T23:24:29.300Z,99.90
2022-08-25T23:27:02.111Z,99.90
2022-08-25T23:29:29.922Z,99.90
2022-08-25T23:31:58.082Z,99.90
2022-08-25T23:34:25.466Z,99.90
2022-08-25T23:36:52.498Z,99.90
2022-08-25T23:39:21.897Z,99.90
2022-08-25T23:41:49.765Z,99.90
2022-08-25T23:44:18.717Z,99.90
2022-08-25T23:46:47.463Z,99.90
2022-08-25T23:49:18.464Z,99.90
2022-08-25T23:51:47.558Z,99.90
2022-08-25T23:54:14.775Z,99.90
2022-08-25T23:56:44.972Z,99.90
2022-08-25T23:59:24.756Z,99.90
